createdAt,value
2022-09-18T00:00:56.433Z,0.00
2022-09-18T00:05:59.093Z,0.00
2022-09-18T00:11:04.354Z,0.00
2022-09-18T00:16:09.598Z,0.40
2022-09-18T00:21:13.495Z,0.00
2022-09-18T00:26:18.308Z,0.00
2022-09-18T00:31:25.557Z,0.00
2022-09-18T00:36:29.392Z,0.00
2022-09-18T00:41:33.368Z,0.00
2022-09-18T00:46:37.676Z,0.00
2022-09-18T00:51:40.759Z,0.00
2022-09-18T00:56:43.979Z,0.00
2022-09-18T01:01:48.089Z,0.00
2022-09-18T01:06:53.445Z,0.00
2022-09-18T01:11:59.161Z,0.00
2022-09-18T01:17:06.287Z,0.00
2022-09-18T01:22:15.940Z,0.00
2022-09-18T01:27:23.231Z,0.00
2022-09-18T01:32:29.092Z,0.00
2022-09-18T01:37:33.934Z,0.00
2022-09-18T01:42:37.623Z,0.00
2022-09-18T01:47:43.119Z,0.00
2022-09-18T01:52:47.843Z,0.00
2022-09-18T01:57:52.690Z,0.00
2022-09-18T02:02:59.597Z,0.60
2022-09-18T02:08:09.210Z,0.00
2022-09-18T02:13:12.554Z,0.00
2022-09-18T02:18:19.466Z,0.40
2022-09-18T02:23:22.363Z,0.20
2022-09-18T02:28:25.341Z,0.00
2022-09-18T02:33:31.019Z,0.00
2022-09-18T02:38:36.846Z,0.40
2022-09-18T02:43:43.212Z,0.00
2022-09-18T02:48:50.231Z,0.00
2022-09-18T02:53:57.464Z,0.00
2022-09-18T02:59:03.617Z,0.00
2022-09-18T03:04:12.166Z,0.00
2022-09-18T03:09:34.818Z,0.00
2022-09-18T03:14:37.575Z,1.00
2022-09-18T03:19:44.527Z,0.00
2022-09-18T03:24:47.211Z,0.40
2022-09-18T03:29:51.856Z,0.00
2022-09-18T03:34:59.320Z,0.00
2022-09-18T03:40:04.103Z,0.00
2022-09-18T03:45:08.278Z,0.00
2022-09-18T03:50:12.589Z,0.00
2022-09-18T03:55:15.900Z,0.00
2022-09-18T04:00:37.213Z,0.00
2022-09-18T04:05:48.894Z,0.00
2022-09-18T04:11:26.672Z,0.00
2022-09-18T04:16:29.767Z,0.00
2022-09-18T04:21:33.903Z,0.00
2022-09-18T04:26:36.758Z,0.00
2022-09-18T04:31:40.193Z,0.00
2022-09-18T04:36:49.005Z,0.00
2022-09-18T04:41:52.185Z,0.00
2022-09-18T04:46:56.001Z,0.00
2022-09-18T04:52:00.313Z,0.00
2022-09-18T04:57:03.932Z,0.00
2022-09-18T05:02:06.739Z,0.00
2022-09-18T05:07:12.297Z,0.00
2022-09-18T05:12:15.124Z,0.00
2022-09-18T05:17:18.065Z,0.00
2022-09-18T05:22:40.786Z,0.00
2022-09-18T05:27:54.435Z,0.00
2022-09-18T05:32:59.329Z,0.00
2022-09-18T05:38:05.460Z,0.40
2022-09-18T05:43:08.498Z,0.00
2022-09-18T05:48:13.202Z,0.00
2022-09-18T05:53:18.462Z,1.20
2022-09-18T05:58:29.651Z,1.00
2022-09-18T06:03:32.669Z,1.00
2022-09-18T06:08:38.176Z,1.80
2022-09-18T06:13:41.178Z,1.00
2022-09-18T06:18:43.856Z,1.00
2022-09-18T06:23:47.895Z,1.00
2022-09-18T06:29:00.125Z,0.80
2022-09-18T06:34:07.732Z,1.00
2022-09-18T06:39:11.793Z,1.20
2022-09-18T06:44:14.683Z,0.40
2022-09-18T06:49:24.500Z,0.40
2022-09-18T06:54:28.528Z,1.00
2022-09-18T06:59:31.284Z,1.00
2022-09-18T07:04:35.104Z,2.00
2022-09-18T07:09:39.157Z,1.00
2022-09-18T07:14:51.642Z,0.60
2022-09-18T07:19:55.479Z,1.00
2022-09-18T07:25:05.025Z,0.20
2022-09-18T07:30:08.784Z,0.00
2022-09-18T07:35:11.703Z,1.00
2022-09-18T07:40:16.229Z,1.00
2022-09-18T07:45:40.502Z,0.80
2022-09-18T07:50:43.232Z,0.00
2022-09-18T07:55:48.015Z,0.60
2022-09-18T08:00:51.299Z,0.60
2022-09-18T08:05:55.795Z,1.00
2022-09-18T08:11:00.793Z,0.20
2022-09-18T08:16:21.711Z,0.80
2022-09-18T08:21:43.255Z,1.00
2022-09-18T08:26:49.903Z,0.80
2022-09-18T08:31:52.813Z,1.00
2022-09-18T08:36:58.204Z,0.40
2022-09-18T08:42:30.165Z,1.00
2022-09-18T08:47:36.660Z,0.60
2022-09-18T08:52:43.490Z,1.00
2022-09-18T08:58:04.650Z,0.00
2022-09-18T09:03:20.253Z,1.00
2022-09-18T09:08:38.706Z,1.00
2022-09-18T09:14:10.587Z,0.80
2022-09-18T09:19:26.614Z,1.00
2022-09-18T09:24:32.487Z,1.00
2022-09-18T09:29:43.422Z,1.00
2022-09-18T09:35:22.679Z,1.60
2022-09-18T09:40:54.629Z,0.00
2022-09-18T09:46:01.154Z,0.40
2022-09-18T09:51:06.589Z,0.00
2022-09-18T09:56:13.104Z,1.00
2022-09-18T10:01:19.542Z,0.40
2022-09-18T10:06:32.084Z,0.00
2022-09-18T10:11:35.116Z,1.00
2022-09-18T10:16:41.737Z,0.00
2022-09-18T10:21:46.476Z,2.00
2022-09-18T10:26:50.923Z,2.00
2022-09-18T10:31:56.846Z,3.00
2022-09-18T10:37:01.770Z,3.00
2022-09-18T10:42:05.761Z,2.00
2022-09-18T10:47:12.450Z,2.40
2022-09-18T10:52:27.058Z,2.00
2022-09-18T10:57:31.271Z,2.00
2022-09-18T11:02:41.369Z,2.00
2022-09-18T11:07:48.443Z,2.00
2022-09-18T11:12:55.711Z,1.60
2022-09-18T11:18:08.673Z,2.00
2022-09-18T11:23:16.775Z,1.20
2022-09-18T11:28:24.049Z,2.00
2022-09-18T11:33:29.735Z,1.00
2022-09-18T11:38:35.044Z,1.00
2022-09-18T11:43:38.613Z,1.00
2022-09-18T11:48:45.390Z,1.00
2022-09-18T11:53:51.286Z,1.00
2022-09-18T11:58:56.354Z,0.40
2022-09-18T12:04:04.661Z,0.00
2022-09-18T12:09:10.675Z,1.00
2022-09-18T12:14:17.044Z,1.00
2022-09-18T12:19:33.912Z,0.20
2022-09-18T12:24:36.958Z,1.00
2022-09-18T12:30:13.354Z,0.40
2022-09-18T12:35:21.082Z,1.00
2022-09-18T12:40:33.996Z,1.00
2022-09-18T12:46:04.853Z,1.00
2022-09-18T12:51:18.010Z,0.80
2022-09-18T12:56:30.206Z,1.00
2022-09-18T13:01:34.320Z,0.00
2022-09-18T13:06:42.491Z,0.00
2022-09-18T13:11:47.223Z,1.00
2022-09-18T13:16:52.294Z,0.80
2022-09-18T13:21:56.375Z,0.00
2022-09-18T13:26:59.065Z,0.40
2022-09-18T13:32:02.452Z,1.00
2022-09-18T13:37:07.358Z,0.20
2022-09-18T13:42:10.109Z,1.00
2022-09-18T13:47:14.035Z,1.00
2022-09-18T13:52:42.807Z,1.00
2022-09-18T13:57:45.577Z,0.20
2022-09-18T14:02:48.459Z,1.00
2022-09-18T14:08:14.246Z,0.60
2022-09-18T14:13:31.629Z,0.20
2022-09-18T14:18:36.756Z,1.00
2022-09-18T14:24:05.377Z,1.00
2022-09-18T14:29:11.175Z,1.00
2022-09-18T14:34:16.823Z,1.00
2022-09-18T14:39:25.103Z,1.00
2022-09-18T14:44:28.335Z,0.80
2022-09-18T14:49:33.996Z,0.80
2022-09-18T14:54:41.003Z,0.00
2022-09-18T14:59:46.420Z,1.00
2022-09-18T15:04:49.218Z,0.00
2022-09-18T15:09:55.279Z,0.00
2022-09-18T15:14:59.075Z,0.60
2022-09-18T15:20:02.964Z,0.60
2022-09-18T15:25:12.419Z,1.00
2022-09-18T15:30:16.321Z,0.60
2022-09-18T15:35:20.822Z,1.00
2022-09-18T15:40:28.352Z,1.00
2022-09-18T15:45:31.803Z,0.00
2022-09-18T15:50:39.154Z,0.80
2022-09-18T15:56:11.773Z,0.00
2022-09-18T16:01:27.201Z,0.00
2022-09-18T16:06:32.328Z,0.00
2022-09-18T16:11:44.614Z,0.60
2022-09-18T16:16:47.266Z,0.00
2022-09-18T16:21:49.937Z,0.00
2022-09-18T16:26:54.084Z,0.60
2022-09-18T16:31:57.509Z,1.00
2022-09-18T16:37:00.217Z,0.40
2022-09-18T16:42:08.022Z,0.20
2022-09-18T16:47:12.551Z,0.00
2022-09-18T16:52:15.275Z,0.00
2022-09-18T16:57:21.694Z,1.00
2022-09-18T17:02:26.219Z,0.00
2022-09-18T17:07:29.929Z,0.00
2022-09-18T17:12:34.290Z,0.00
2022-09-18T17:17:37.010Z,0.00
2022-09-18T17:22:39.698Z,1.00
2022-09-18T17:27:44.070Z,0.00
2022-09-18T17:32:48.029Z,0.00
2022-09-18T17:37:51.735Z,1.00
2022-09-18T17:42:56.608Z,0.00
2022-09-18T17:47:59.468Z,0.40
2022-09-18T17:53:02.472Z,1.00
2022-09-18T17:58:06.730Z,1.00
2022-09-18T18:03:09.506Z,0.00
2022-09-18T18:08:12.168Z,0.00
2022-09-18T18:13:17.924Z,0.00
2022-09-18T18:18:20.761Z,0.00
2022-09-18T18:23:23.593Z,0.00
2022-09-18T18:28:30.288Z,1.00
2022-09-18T18:33:33.457Z,1.00
2022-09-18T18:38:36.365Z,0.00
2022-09-18T18:43:41.016Z,0.20
2022-09-18T18:48:44.368Z,0.20
2022-09-18T18:53:47.168Z,0.00
2022-09-18T18:58:55.985Z,0.40
2022-09-18T19:04:00.367Z,0.00
2022-09-18T19:09:05.722Z,0.60
2022-09-18T19:14:11.695Z,0.00
2022-09-18T19:19:15.410Z,0.60
2022-09-18T19:24:19.112Z,0.00
2022-09-18T19:29:23.246Z,0.00
2022-09-18T19:34:26.026Z,0.00
2022-09-18T19:39:28.871Z,0.00
2022-09-18T19:44:35.065Z,0.00
2022-09-18T19:49:38.129Z,0.00
2022-09-18T19:54:40.940Z,1.00
2022-09-18T19:59:44.950Z,0.00
2022-09-18T20:04:47.738Z,0.20
2022-09-18T20:09:51.003Z,0.00
2022-09-18T20:14:56.878Z,0.00
2022-09-18T20:19:59.729Z,0.00
2022-09-18T20:25:02.427Z,0.00
2022-09-18T20:30:07.700Z,0.00
2022-09-18T20:35:10.893Z,0.00
2022-09-18T20:40:14.136Z,0.00
2022-09-18T20:45:18.563Z,0.00
2022-09-18T20:50:25.595Z,0.20
2022-09-18T20:55:28.371Z,0.00
2022-09-18T21:00:32.464Z,1.00
2022-09-18T21:05:35.772Z,0.00
2022-09-18T21:10:46.583Z,0.40
2022-09-18T21:15:50.667Z,0.00
2022-09-18T21:21:01.976Z,0.00
2022-09-18T21:26:14.497Z,0.00
2022-09-18T21:31:21.752Z,0.00
2022-09-18T21:36:25.559Z,0.00
2022-09-18T21:41:28.263Z,0.00
2022-09-18T21:46:34.310Z,0.00
2022-09-18T21:51:37.619Z,0.00
2022-09-18T21:56:40.294Z,0.00
2022-09-18T22:01:44.366Z,0.00
2022-09-18T22:06:47.518Z,0.00
2022-09-18T22:11:50.889Z,0.60
2022-09-18T22:16:56.326Z,0.00
2022-09-18T22:21:59.028Z,0.00
2022-09-18T22:27:08.317Z,0.00
2022-09-18T22:32:12.607Z,0.00
2022-09-18T22:37:15.298Z,0.00
2022-09-18T22:42:18.010Z,0.00
2022-09-18T22:47:21.986Z,0.00
2022-09-18T22:52:24.760Z,0.00
2022-09-18T22:57:27.508Z,0.00
2022-09-18T23:02:32.089Z,0.00
2022-09-18T23:07:38.746Z,0.00
2022-09-18T23:12:41.507Z,0.00
2022-09-18T23:17:46.057Z,0.00
2022-09-18T23:22:48.722Z,0.00
2022-09-18T23:27:53.452Z,0.00
2022-09-18T23:32:57.517Z,0.00
2022-09-18T23:38:00.198Z,0.00
2022-09-18T23:43:03.036Z,0.00
2022-09-18T23:48:07.052Z,0.00
2022-09-18T23:53:09.726Z,0.00
2022-09-18T23:58:12.438Z,0.00
